sensor_id;sensor_type;location;lat;lon;timestamp;P1;durP1;ratioP1;P2;durP2;ratioP2
11222;SDS011;5668;52.012;8.724;2023-05-10T00:02:09;4.40;;;4.10;;
11222;SDS011;5668;52.012;8.724;2023-05-10T00:04:36;4.50;;;4.20;;
11222;SDS011;5668;52.012;8.724;2023-05-10T00:07:03;4.63;;;4.18;;
11222;SDS011;5668;52.012;8.724;2023-05-10T00:09:31;4.80;;;4.40;;
11222;SDS011;5668;52.012;8.724;2023-05-10T00:11:59;4.75;;;4.35;;
11222;SDS011;5668;52.012;8.724;2023-05-10T00:14:26;5.38;;;4.88;;
11222;SDS011;5668;52.012;8.724;2023-05-10T00:16:53;4.60;;;4.30;;
11222;SDS011;5668;52.012;8.724;2023-05-10T00:19:20;5.53;;;5.07;;
11222;SDS011;5668;52.012;8.724;2023-05-10T00:21:48;5.22;;;4.68;;
11222;SDS011;5668;52.012;8.724;2023-05-10T00:24:15;5.05;;;4.65;;
11222;SDS011;5668;52.012;8.724;2023-05-10T00:26:43;4.90;;;4.50;;
11222;SDS011;5668;52.012;8.724;2023-05-10T00:29:13;5.05;;;4.65;;
11222;SDS011;5668;52.012;8.724;2023-05-10T00:31:41;5.35;;;4.78;;
11222;SDS011;5668;52.012;8.724;2023-05-10T00:34:08;4.78;;;4.40;;
11222;SDS011;5668;52.012;8.724;2023-05-10T00:36:35;4.68;;;4.30;;
11222;SDS011;5668;52.012;8.724;2023-05-10T00:39:03;4.60;;;4.18;;
11222;SDS011;5668;52.012;8.724;2023-05-10T00:41:31;4.60;;;4.30;;
11222;SDS011;5668;52.012;8.724;2023-05-10T00:43:59;5.20;;;4.70;;
11222;SDS011;5668;52.012;8.724;2023-05-10T00:46:27;4.97;;;4.47;;
11222;SDS011;5668;52.012;8.724;2023-05-10T00:48:54;4.80;;;4.40;;
11222;SDS011;5668;52.012;8.724;2023-05-10T00:51:21;4.72;;;4.28;;
11222;SDS011;5668;52.012;8.724;2023-05-10T00:53:49;4.97;;;4.57;;
11222;SDS011;5668;52.012;8.724;2023-05-10T00:56:17;4.85;;;4.38;;
11222;SDS011;5668;52.012;8.724;2023-05-10T00:58:45;4.38;;;4.07;;
11222;SDS011;5668;52.012;8.724;2023-05-10T01:01:14;4.80;;;4.40;;
11222;SDS011;5668;52.012;8.724;2023-05-10T01:03:41;5.18;;;4.78;;
11222;SDS011;5668;52.012;8.724;2023-05-10T01:06:08;5.53;;;5.03;;
11222;SDS011;5668;52.012;8.724;2023-05-10T01:08:36;5.43;;;4.93;;
11222;SDS011;5668;52.012;8.724;2023-05-10T01:11:03;4.93;;;4.53;;
11222;SDS011;5668;52.012;8.724;2023-05-10T01:13:32;4.82;;;4.43;;
11222;SDS011;5668;52.012;8.724;2023-05-10T01:16:02;5.25;;;4.85;;
11222;SDS011;5668;52.012;8.724;2023-05-10T01:18:33;5.60;;;5.10;;
11222;SDS011;5668;52.012;8.724;2023-05-10T01:21:04;5.40;;;5.00;;
11222;SDS011;5668;52.012;8.724;2023-05-10T01:23:44;5.78;;;5.32;;
11222;SDS011;5668;52.012;8.724;2023-05-10T01:26:47;5.70;;;5.22;;
11222;SDS011;5668;52.012;8.724;2023-05-10T01:32:33;6.32;;;5.82;;
11222;SDS011;5668;52.012;8.724;2023-05-10T01:35:10;6.05;;;5.43;;
11222;SDS011;5668;52.012;8.724;2023-05-10T01:37:44;6.28;;;5.10;;
11222;SDS011;5668;52.012;8.724;2023-05-10T01:40:18;7.88;;;5.22;;
11222;SDS011;5668;52.012;8.724;2023-05-10T01:42:53;5.60;;;5.10;;
11222;SDS011;5668;52.012;8.724;2023-05-10T01:45:27;5.95;;;5.45;;
11222;SDS011;5668;52.012;8.724;2023-05-10T01:48:02;5.45;;;4.95;;
11222;SDS011;5668;52.012;8.724;2023-05-10T01:50:32;7.03;;;4.80;;
11222;SDS011;5668;52.012;8.724;2023-05-10T01:53:01;6.80;;;5.30;;
11222;SDS011;5668;52.012;8.724;2023-05-10T01:55:32;5.65;;;5.15;;
11222;SDS011;5668;52.012;8.724;2023-05-10T01:58:05;7.85;;;5.03;;
11222;SDS011;5668;52.012;8.724;2023-05-10T02:00:35;5.80;;;5.30;;
11222;SDS011;5668;52.012;8.724;2023-05-10T02:03:10;5.75;;;5.25;;
11222;SDS011;5668;52.012;8.724;2023-05-10T02:05:38;5.82;;;4.88;;
11222;SDS011;5668;52.012;8.724;2023-05-10T02:08:07;6.07;;;5.57;;
11222;SDS011;5668;52.012;8.724;2023-05-10T02:10:35;5.95;;;5.53;;
11222;SDS011;5668;52.012;8.724;2023-05-10T02:13:03;7.00;;;5.65;;
11222;SDS011;5668;52.012;8.724;2023-05-10T02:15:33;6.70;;;6.20;;
11222;SDS011;5668;52.012;8.724;2023-05-10T02:18:03;6.95;;;6.40;;
11222;SDS011;5668;52.012;8.724;2023-05-10T02:20:32;6.40;;;5.90;;
11222;SDS011;5668;52.012;8.724;2023-05-10T02:23:00;6.45;;;5.88;;
11222;SDS011;5668;52.012;8.724;2023-05-10T02:25:29;6.38;;;5.82;;
11222;SDS011;5668;52.012;8.724;2023-05-10T02:27:57;7.05;;;6.35;;
11222;SDS011;5668;52.012;8.724;2023-05-10T02:30:28;7.97;;;7.07;;
11222;SDS011;5668;52.012;8.724;2023-05-10T02:32:57;6.88;;;4.72;;
11222;SDS011;5668;52.012;8.724;2023-05-10T02:35:24;3.05;;;2.75;;
11222;SDS011;5668;52.012;8.724;2023-05-10T02:37:54;2.33;;;2.00;;
11222;SDS011;5668;52.012;8.724;2023-05-10T02:40:24;1.80;;;1.70;;
11222;SDS011;5668;52.012;8.724;2023-05-10T02:42:54;1.70;;;1.50;;
11222;SDS011;5668;52.012;8.724;2023-05-10T02:45:24;1.80;;;1.70;;
11222;SDS011;5668;52.012;8.724;2023-05-10T02:47:54;2.95;;;1.90;;
11222;SDS011;5668;52.012;8.724;2023-05-10T02:50:22;1.60;;;1.50;;
11222;SDS011;5668;52.012;8.724;2023-05-10T02:52:51;1.40;;;1.27;;
11222;SDS011;5668;52.012;8.724;2023-05-10T02:55:26;1.98;;;1.33;;
11222;SDS011;5668;52.012;8.724;2023-05-10T02:57:59;1.60;;;1.50;;
11222;SDS011;5668;52.012;8.724;2023-05-10T03:00:28;2.67;;;1.58;;
11222;SDS011;5668;52.012;8.724;2023-05-10T03:02:56;1.35;;;1.25;;
11222;SDS011;5668;52.012;8.724;2023-05-10T03:05:23;1.42;;;1.33;;
11222;SDS011;5668;52.012;8.724;2023-05-10T03:07:51;1.38;;;1.27;;
11222;SDS011;5668;52.012;8.724;2023-05-10T03:10:21;1.48;;;1.27;;
11222;SDS011;5668;52.012;8.724;2023-05-10T03:12:56;1.80;;;1.52;;
11222;SDS011;5668;52.012;8.724;2023-05-10T03:15:33;2.45;;;1.85;;
11222;SDS011;5668;52.012;8.724;2023-05-10T03:18:11;1.85;;;1.70;;
11222;SDS011;5668;52.012;8.724;2023-05-10T03:20:42;3.08;;;2.00;;
11222;SDS011;5668;52.012;8.724;2023-05-10T03:23:13;3.30;;;1.90;;
11222;SDS011;5668;52.012;8.724;2023-05-10T03:25:49;2.30;;;2.10;;
11222;SDS011;5668;52.012;8.724;2023-05-10T03:28:17;2.53;;;2.33;;
11222;SDS011;5668;52.012;8.724;2023-05-10T03:30:46;2.40;;;2.20;;
11222;SDS011;5668;52.012;8.724;2023-05-10T03:33:14;2.53;;;2.33;;
11222;SDS011;5668;52.012;8.724;2023-05-10T03:35:42;2.55;;;2.35;;
11222;SDS011;5668;52.012;8.724;2023-05-10T03:38:10;2.90;;;2.70;;
11222;SDS011;5668;52.012;8.724;2023-05-10T03:40:38;4.35;;;3.33;;
11222;SDS011;5668;52.012;8.724;2023-05-10T03:43:06;3.33;;;3.13;;
11222;SDS011;5668;52.012;8.724;2023-05-10T03:45:34;4.25;;;3.85;;
11222;SDS011;5668;52.012;8.724;2023-05-10T03:48:01;4.50;;;4.10;;
11222;SDS011;5668;52.012;8.724;2023-05-10T03:50:29;4.65;;;4.28;;
11222;SDS011;5668;52.012;8.724;2023-05-10T03:52:56;5.30;;;4.90;;
11222;SDS011;5668;52.012;8.724;2023-05-10T03:55:23;5.00;;;4.60;;
11222;SDS011;5668;52.012;8.724;2023-05-10T03:57:50;5.10;;;4.70;;
11222;SDS011;5668;52.012;8.724;2023-05-10T04:00:20;5.03;;;4.63;;
11222;SDS011;5668;52.012;8.724;2023-05-10T04:02:47;5.78;;;5.18;;
11222;SDS011;5668;52.012;8.724;2023-05-10T04:05:14;5.70;;;5.25;;
11222;SDS011;5668;52.012;8.724;2023-05-10T04:07:42;5.78;;;5.28;;
11222;SDS011;5668;52.012;8.724;2023-05-10T04:10:10;5.50;;;5.10;;
11222;SDS011;5668;52.012;8.724;2023-05-10T04:12:39;6.00;;;5.50;;
11222;SDS011;5668;52.012;8.724;2023-05-10T04:15:06;6.07;;;5.53;;
11222;SDS011;5668;52.012;8.724;2023-05-10T04:17:35;5.72;;;5.20;;
11222;SDS011;5668;52.012;8.724;2023-05-10T04:20:03;4.93;;;4.53;;
11222;SDS011;5668;52.012;8.724;2023-05-10T04:22:32;5.93;;;4.53;;
11222;SDS011;5668;52.012;8.724;2023-05-10T04:24:59;4.55;;;4.15;;
11222;SDS011;5668;52.012;8.724;2023-05-10T04:27:27;4.35;;;3.95;;
11222;SDS011;5668;52.012;8.724;2023-05-10T04:29:54;3.90;;;3.60;;
11222;SDS011;5668;52.012;8.724;2023-05-10T04:32:21;3.92;;;3.60;;
11222;SDS011;5668;52.012;8.724;2023-05-10T04:34:50;3.10;;;2.70;;
11222;SDS011;5668;52.012;8.724;2023-05-10T04:37:18;2.80;;;2.60;;
11222;SDS011;5668;52.012;8.724;2023-05-10T04:39:46;2.08;;;1.88;;
11222;SDS011;5668;52.012;8.724;2023-05-10T04:42:13;5.40;;;1.77;;
11222;SDS011;5668;52.012;8.724;2023-05-10T04:44:40;1.58;;;1.42;;
11222;SDS011;5668;52.012;8.724;2023-05-10T04:47:08;1.30;;;1.10;;
11222;SDS011;5668;52.012;8.724;2023-05-10T04:49:36;0.90;;;0.90;;
11222;SDS011;5668;52.012;8.724;2023-05-10T04:52:05;0.80;;;0.80;;
11222;SDS011;5668;52.012;8.724;2023-05-10T04:54:32;0.68;;;0.68;;
11222;SDS011;5668;52.012;8.724;2023-05-10T04:56:59;0.50;;;0.50;;
11222;SDS011;5668;52.012;8.724;2023-05-10T04:59:27;0.70;;;0.70;;
11222;SDS011;5668;52.012;8.724;2023-05-10T05:01:54;0.80;;;0.50;;
11222;SDS011;5668;52.012;8.724;2023-05-10T05:04:21;0.60;;;0.60;;
11222;SDS011;5668;52.012;8.724;2023-05-10T05:06:49;1.13;;;0.60;;
11222;SDS011;5668;52.012;8.724;2023-05-10T05:09:17;0.73;;;0.55;;
11222;SDS011;5668;52.012;8.724;2023-05-10T05:11:44;0.77;;;0.60;;
11222;SDS011;5668;52.012;8.724;2023-05-10T05:14:12;0.90;;;0.60;;
11222;SDS011;5668;52.012;8.724;2023-05-10T05:16:39;0.50;;;0.50;;
11222;SDS011;5668;52.012;8.724;2023-05-10T05:19:06;0.43;;;0.43;;
11222;SDS011;5668;52.012;8.724;2023-05-10T05:21:33;0.50;;;0.50;;
11222;SDS011;5668;52.012;8.724;2023-05-10T05:24:00;0.75;;;0.75;;
11222;SDS011;5668;52.012;8.724;2023-05-10T05:26:29;1.80;;;0.77;;
11222;SDS011;5668;52.012;8.724;2023-05-10T05:28:57;0.82;;;0.63;;
11222;SDS011;5668;52.012;8.724;2023-05-10T05:31:24;0.60;;;0.60;;
11222;SDS011;5668;52.012;8.724;2023-05-10T05:33:51;0.70;;;0.70;;
11222;SDS011;5668;52.012;8.724;2023-05-10T05:36:19;1.08;;;0.70;;
11222;SDS011;5668;52.012;8.724;2023-05-10T05:38:46;1.35;;;0.88;;
11222;SDS011;5668;52.012;8.724;2023-05-10T05:41:13;1.17;;;1.00;;
11222;SDS011;5668;52.012;8.724;2023-05-10T05:43:41;3.75;;;1.08;;
11222;SDS011;5668;52.012;8.724;2023-05-10T05:46:09;1.65;;;0.90;;
11222;SDS011;5668;52.012;8.724;2023-05-10T05:48:36;1.08;;;0.93;;
11222;SDS011;5668;52.012;8.724;2023-05-10T05:51:03;1.35;;;1.25;;
11222;SDS011;5668;52.012;8.724;2023-05-10T05:53:30;2.97;;;1.30;;
11222;SDS011;5668;52.012;8.724;2023-05-10T05:55:58;3.13;;;1.40;;
11222;SDS011;5668;52.012;8.724;2023-05-10T05:58:25;1.60;;;1.20;;
11222;SDS011;5668;52.012;8.724;2023-05-10T06:00:54;3.08;;;1.40;;
11222;SDS011;5668;52.012;8.724;2023-05-10T06:03:21;1.30;;;1.20;;
11222;SDS011;5668;52.012;8.724;2023-05-10T06:05:48;1.60;;;1.50;;
11222;SDS011;5668;52.012;8.724;2023-05-10T06:08:16;1.30;;;1.20;;
11222;SDS011;5668;52.012;8.724;2023-05-10T06:10:43;1.45;;;1.35;;
11222;SDS011;5668;52.012;8.724;2023-05-10T06:13:10;1.40;;;1.30;;
11222;SDS011;5668;52.012;8.724;2023-05-10T06:15:37;1.23;;;1.13;;
11222;SDS011;5668;52.012;8.724;2023-05-10T06:18:06;1.67;;;1.33;;
11222;SDS011;5668;52.012;8.724;2023-05-10T06:20:33;1.48;;;1.38;;
11222;SDS011;5668;52.012;8.724;2023-05-10T06:23:00;1.35;;;1.25;;
11222;SDS011;5668;52.012;8.724;2023-05-10T06:25:28;1.60;;;1.40;;
11222;SDS011;5668;52.012;8.724;2023-05-10T06:27:55;1.88;;;1.50;;
11222;SDS011;5668;52.012;8.724;2023-05-10T06:30:23;1.55;;;1.10;;
11222;SDS011;5668;52.012;8.724;2023-05-10T06:32:53;2.00;;;1.60;;
11222;SDS011;5668;52.012;8.724;2023-05-10T06:35:22;2.05;;;1.50;;
11222;SDS011;5668;52.012;8.724;2023-05-10T06:37:50;1.63;;;1.30;;
11222;SDS011;5668;52.012;8.724;2023-05-10T06:40:17;1.45;;;1.23;;
11222;SDS011;5668;52.012;8.724;2023-05-10T06:42:45;1.73;;;1.63;;
11222;SDS011;5668;52.012;8.724;2023-05-10T06:45:13;2.13;;;1.35;;
11222;SDS011;5668;52.012;8.724;2023-05-10T06:47:40;1.42;;;1.25;;
11222;SDS011;5668;52.012;8.724;2023-05-10T06:50:08;2.35;;;1.40;;
11222;SDS011;5668;52.012;8.724;2023-05-10T06:52:39;1.23;;;1.13;;
11222;SDS011;5668;52.012;8.724;2023-05-10T06:55:06;2.13;;;1.10;;
11222;SDS011;5668;52.012;8.724;2023-05-10T06:57:34;1.50;;;1.40;;
11222;SDS011;5668;52.012;8.724;2023-05-10T07:00:02;1.90;;;1.50;;
11222;SDS011;5668;52.012;8.724;2023-05-10T07:02:30;1.30;;;1.20;;
11222;SDS011;5668;52.012;8.724;2023-05-10T07:04:57;1.60;;;1.50;;
11222;SDS011;5668;52.012;8.724;2023-05-10T07:07:24;1.85;;;1.40;;
11222;SDS011;5668;52.012;8.724;2023-05-10T07:09:53;1.38;;;1.15;;
11222;SDS011;5668;52.012;8.724;2023-05-10T07:12:21;3.40;;;1.45;;
11222;SDS011;5668;52.012;8.724;2023-05-10T07:14:48;2.13;;;1.55;;
11222;SDS011;5668;52.012;8.724;2023-05-10T07:17:16;1.80;;;1.40;;
11222;SDS011;5668;52.012;8.724;2023-05-10T07:19:43;2.03;;;1.30;;
11222;SDS011;5668;52.012;8.724;2023-05-10T07:22:10;1.30;;;1.20;;
11222;SDS011;5668;52.012;8.724;2023-05-10T07:24:37;4.72;;;1.33;;
11222;SDS011;5668;52.012;8.724;2023-05-10T07:27:06;1.83;;;1.40;;
11222;SDS011;5668;52.012;8.724;2023-05-10T07:29:34;1.80;;;1.48;;
11222;SDS011;5668;52.012;8.724;2023-05-10T07:32:01;1.35;;;1.10;;
11222;SDS011;5668;52.012;8.724;2023-05-10T07:34:28;1.85;;;1.33;;
11222;SDS011;5668;52.012;8.724;2023-05-10T07:36:57;2.65;;;1.65;;
11222;SDS011;5668;52.012;8.724;2023-05-10T07:39:25;2.17;;;1.67;;
11222;SDS011;5668;52.012;8.724;2023-05-10T07:41:52;3.05;;;1.65;;
11222;SDS011;5668;52.012;8.724;2023-05-10T07:44:21;2.22;;;1.67;;
11222;SDS011;5668;52.012;8.724;2023-05-10T07:46:49;1.90;;;1.60;;
11222;SDS011;5668;52.012;8.724;2023-05-10T07:49:17;2.15;;;1.92;;
11222;SDS011;5668;52.012;8.724;2023-05-10T07:51:44;2.00;;;1.88;;
11222;SDS011;5668;52.012;8.724;2023-05-10T07:54:11;3.75;;;1.80;;
11222;SDS011;5668;52.012;8.724;2023-05-10T07:56:38;3.20;;;2.15;;
11222;SDS011;5668;52.012;8.724;2023-05-10T07:59:13;2.78;;;2.13;;
11222;SDS011;5668;52.012;8.724;2023-05-10T08:01:43;2.10;;;1.90;;
11222;SDS011;5668;52.012;8.724;2023-05-10T08:04:11;4.60;;;2.70;;
11222;SDS011;5668;52.012;8.724;2023-05-10T08:06:38;2.92;;;2.65;;
11222;SDS011;5668;52.012;8.724;2023-05-10T08:09:06;4.10;;;3.22;;
11222;SDS011;5668;52.012;8.724;2023-05-10T08:11:33;3.58;;;2.92;;
11222;SDS011;5668;52.012;8.724;2023-05-10T08:14:00;3.40;;;2.92;;
11222;SDS011;5668;52.012;8.724;2023-05-10T08:16:27;4.22;;;3.42;;
11222;SDS011;5668;52.012;8.724;2023-05-10T08:18:56;4.03;;;3.67;;
11222;SDS011;5668;52.012;8.724;2023-05-10T08:21:23;7.18;;;3.92;;
11222;SDS011;5668;52.012;8.724;2023-05-10T08:23:51;5.63;;;4.20;;
11222;SDS011;5668;52.012;8.724;2023-05-10T08:26:18;5.75;;;4.82;;
11222;SDS011;5668;52.012;8.724;2023-05-10T08:28:45;6.68;;;5.13;;
11222;SDS011;5668;52.012;8.724;2023-05-10T08:31:13;6.53;;;5.65;;
11222;SDS011;5668;52.012;8.724;2023-05-10T08:33:40;7.18;;;5.90;;
11222;SDS011;5668;52.012;8.724;2023-05-10T08:36:09;6.10;;;5.60;;
11222;SDS011;5668;52.012;8.724;2023-05-10T08:38:39;7.53;;;6.40;;
11222;SDS011;5668;52.012;8.724;2023-05-10T08:41:06;6.70;;;6.00;;
11222;SDS011;5668;52.012;8.724;2023-05-10T08:43:33;6.72;;;6.05;;
11222;SDS011;5668;52.012;8.724;2023-05-10T08:46:03;9.88;;;6.75;;
11222;SDS011;5668;52.012;8.724;2023-05-10T08:51:01;8.30;;;7.32;;
11222;SDS011;5668;52.012;8.724;2023-05-10T08:53:32;8.45;;;7.65;;
11222;SDS011;5668;52.012;8.724;2023-05-10T08:56:02;10.95;;;8.60;;
11222;SDS011;5668;52.012;8.724;2023-05-10T08:58:30;8.98;;;7.90;;
11222;SDS011;5668;52.012;8.724;2023-05-10T09:00:57;9.68;;;8.25;;
11222;SDS011;5668;52.012;8.724;2023-05-10T09:03:26;9.55;;;8.65;;
11222;SDS011;5668;52.012;8.724;2023-05-10T09:05:54;10.18;;;8.40;;
11222;SDS011;5668;52.012;8.724;2023-05-10T09:08:21;10.52;;;8.52;;
11222;SDS011;5668;52.012;8.724;2023-05-10T09:10:52;10.18;;;8.13;;
11222;SDS011;5668;52.012;8.724;2023-05-10T09:13:20;9.00;;;7.82;;
11222;SDS011;5668;52.012;8.724;2023-05-10T09:15:49;11.82;;;8.15;;
11222;SDS011;5668;52.012;8.724;2023-05-10T09:18:16;11.32;;;8.50;;
11222;SDS011;5668;52.012;8.724;2023-05-10T09:20:43;10.63;;;8.68;;
11222;SDS011;5668;52.012;8.724;2023-05-10T09:23:11;10.32;;;8.15;;
11222;SDS011;5668;52.012;8.724;2023-05-10T09:25:38;10.43;;;8.82;;
11222;SDS011;5668;52.012;8.724;2023-05-10T09:28:09;10.70;;;9.10;;
11222;SDS011;5668;52.012;8.724;2023-05-10T09:30:37;10.52;;;8.20;;
11222;SDS011;5668;52.012;8.724;2023-05-10T09:33:05;9.95;;;8.52;;
11222;SDS011;5668;52.012;8.724;2023-05-10T09:35:33;11.50;;;8.10;;
11222;SDS011;5668;52.012;8.724;2023-05-10T09:38:01;11.32;;;9.18;;
11222;SDS011;5668;52.012;8.724;2023-05-10T09:40:30;11.32;;;9.80;;
11222;SDS011;5668;52.012;8.724;2023-05-10T09:42:58;11.63;;;9.32;;
11222;SDS011;5668;52.012;8.724;2023-05-10T09:45:28;13.50;;;9.88;;
11222;SDS011;5668;52.012;8.724;2023-05-10T09:47:56;12.50;;;10.80;;
11222;SDS011;5668;52.012;8.724;2023-05-10T09:50:24;13.95;;;11.32;;
11222;SDS011;5668;52.012;8.724;2023-05-10T09:52:52;13.82;;;11.75;;
11222;SDS011;5668;52.012;8.724;2023-05-10T09:55:23;13.57;;;11.68;;
11222;SDS011;5668;52.012;8.724;2023-05-10T09:57:58;15.40;;;12.82;;
11222;SDS011;5668;52.012;8.724;2023-05-10T10:00:27;14.38;;;12.73;;
11222;SDS011;5668;52.012;8.724;2023-05-10T10:03:00;17.08;;;12.23;;
11222;SDS011;5668;52.012;8.724;2023-05-10T10:05:28;15.43;;;12.57;;
11222;SDS011;5668;52.012;8.724;2023-05-10T10:07:56;14.80;;;13.20;;
11222;SDS011;5668;52.012;8.724;2023-05-10T10:10:25;16.40;;;13.55;;
11222;SDS011;5668;52.012;8.724;2023-05-10T10:12:53;15.43;;;13.70;;
11222;SDS011;5668;52.012;8.724;2023-05-10T10:15:21;16.67;;;12.43;;
11222;SDS011;5668;52.012;8.724;2023-05-10T10:17:51;14.13;;;11.60;;
11222;SDS011;5668;52.012;8.724;2023-05-10T10:20:20;15.80;;;11.77;;
11222;SDS011;5668;52.012;8.724;2023-05-10T10:22:49;15.13;;;12.18;;
11222;SDS011;5668;52.012;8.724;2023-05-10T10:25:16;13.10;;;11.13;;
11222;SDS011;5668;52.012;8.724;2023-05-10T10:27:48;14.27;;;12.77;;
11222;SDS011;5668;52.012;8.724;2023-05-10T10:30:27;14.13;;;11.98;;
11222;SDS011;5668;52.012;8.724;2023-05-10T10:33:10;13.85;;;12.43;;
11222;SDS011;5668;52.012;8.724;2023-05-10T10:35:48;17.15;;;13.07;;
11222;SDS011;5668;52.012;8.724;2023-05-10T10:38:18;12.82;;;10.93;;
11222;SDS011;5668;52.012;8.724;2023-05-10T10:40:45;10.65;;;9.55;;
11222;SDS011;5668;52.012;8.724;2023-05-10T10:43:22;11.85;;;10.00;;
11222;SDS011;5668;52.012;8.724;2023-05-10T10:46:10;11.38;;;9.32;;
11222;SDS011;5668;52.012;8.724;2023-05-10T10:48:40;12.70;;;9.73;;
11222;SDS011;5668;52.012;8.724;2023-05-10T10:51:13;11.18;;;9.93;;
11222;SDS011;5668;52.012;8.724;2023-05-10T10:53:40;13.73;;;10.43;;
11222;SDS011;5668;52.012;8.724;2023-05-10T10:56:09;10.80;;;9.20;;
11222;SDS011;5668;52.012;8.724;2023-05-10T10:58:38;10.45;;;8.98;;
11222;SDS011;5668;52.012;8.724;2023-05-10T11:01:10;9.45;;;8.27;;
11222;SDS011;5668;52.012;8.724;2023-05-10T11:03:39;8.70;;;7.90;;
11222;SDS011;5668;52.012;8.724;2023-05-10T11:06:28;7.82;;;7.03;;
11222;SDS011;5668;52.012;8.724;2023-05-10T11:08:56;5.90;;;5.25;;
11222;SDS011;5668;52.012;8.724;2023-05-10T11:11:24;6.78;;;5.00;;
11222;SDS011;5668;52.012;8.724;2023-05-10T11:13:51;5.05;;;4.50;;
11222;SDS011;5668;52.012;8.724;2023-05-10T11:16:19;6.40;;;5.05;;
11222;SDS011;5668;52.012;8.724;2023-05-10T11:18:53;5.60;;;5.10;;
11222;SDS011;5668;52.012;8.724;2023-05-10T11:21:23;7.75;;;5.75;;
11222;SDS011;5668;52.012;8.724;2023-05-10T11:23:52;5.15;;;4.70;;
11222;SDS011;5668;52.012;8.724;2023-05-10T11:26:22;4.85;;;4.07;;
11222;SDS011;5668;52.012;8.724;2023-05-10T11:28:50;5.65;;;3.88;;
11222;SDS011;5668;52.012;8.724;2023-05-10T11:31:20;4.45;;;4.03;;
11222;SDS011;5668;52.012;8.724;2023-05-10T11:33:48;6.35;;;5.75;;
11222;SDS011;5668;52.012;8.724;2023-05-10T11:36:19;9.27;;;8.07;;
11222;SDS011;5668;52.012;8.724;2023-05-10T11:38:48;8.80;;;7.97;;
11222;SDS011;5668;52.012;8.724;2023-05-10T11:41:16;8.48;;;7.57;;
11222;SDS011;5668;52.012;8.724;2023-05-10T11:43:46;8.55;;;7.20;;
11222;SDS011;5668;52.012;8.724;2023-05-10T11:46:16;7.50;;;6.80;;
11222;SDS011;5668;52.012;8.724;2023-05-10T11:48:46;7.60;;;5.72;;
11222;SDS011;5668;52.012;8.724;2023-05-10T11:51:19;8.77;;;6.68;;
11222;SDS011;5668;52.012;8.724;2023-05-10T11:53:48;8.25;;;6.05;;
11222;SDS011;5668;52.012;8.724;2023-05-10T11:56:18;8.68;;;6.38;;
11222;SDS011;5668;52.012;8.724;2023-05-10T11:58:52;7.85;;;5.78;;
11222;SDS011;5668;52.012;8.724;2023-05-10T12:01:20;8.77;;;6.63;;
11222;SDS011;5668;52.012;8.724;2023-05-10T12:03:48;9.13;;;6.90;;
11222;SDS011;5668;52.012;8.724;2023-05-10T12:06:16;7.63;;;6.32;;
11222;SDS011;5668;52.012;8.724;2023-05-10T12:08:45;6.95;;;5.93;;
11222;SDS011;5668;52.012;8.724;2023-05-10T12:11:17;6.40;;;5.22;;
11222;SDS011;5668;52.012;8.724;2023-05-10T12:13:45;5.20;;;4.53;;
11222;SDS011;5668;52.012;8.724;2023-05-10T12:16:14;5.53;;;4.85;;
11222;SDS011;5668;52.012;8.724;2023-05-10T12:18:43;5.13;;;4.60;;
11222;SDS011;5668;52.012;8.724;2023-05-10T12:21:10;5.10;;;4.63;;
11222;SDS011;5668;52.012;8.724;2023-05-10T12:23:38;5.72;;;4.03;;
11222;SDS011;5668;52.012;8.724;2023-05-10T12:26:07;4.90;;;4.30;;
11222;SDS011;5668;52.012;8.724;2023-05-10T12:28:36;4.90;;;4.50;;
11222;SDS011;5668;52.012;8.724;2023-05-10T12:31:04;6.25;;;4.85;;
11222;SDS011;5668;52.012;8.724;2023-05-10T12:33:35;7.32;;;5.28;;
11222;SDS011;5668;52.012;8.724;2023-05-10T12:36:04;9.23;;;5.55;;
11222;SDS011;5668;52.012;8.724;2023-05-10T12:38:33;7.60;;;6.15;;
11222;SDS011;5668;52.012;8.724;2023-05-10T12:41:03;9.10;;;6.50;;
11222;SDS011;5668;52.012;8.724;2023-05-10T12:43:33;6.68;;;5.68;;
11222;SDS011;5668;52.012;8.724;2023-05-10T12:46:04;6.03;;;5.30;;
11222;SDS011;5668;52.012;8.724;2023-05-10T12:48:33;6.28;;;4.85;;
11222;SDS011;5668;52.012;8.724;2023-05-10T12:51:00;6.95;;;4.43;;
11222;SDS011;5668;52.012;8.724;2023-05-10T12:53:28;4.18;;;3.78;;
11222;SDS011;5668;52.012;8.724;2023-05-10T12:55:55;3.67;;;3.38;;
11222;SDS011;5668;52.012;8.724;2023-05-10T12:58:23;5.60;;;4.10;;
11222;SDS011;5668;52.012;8.724;2023-05-10T13:00:51;5.30;;;3.75;;
11222;SDS011;5668;52.012;8.724;2023-05-10T13:03:19;5.35;;;4.00;;
11222;SDS011;5668;52.012;8.724;2023-05-10T13:05:46;6.25;;;4.03;;
11222;SDS011;5668;52.012;8.724;2023-05-10T13:08:13;4.93;;;4.43;;
11222;SDS011;5668;52.012;8.724;2023-05-10T13:10:40;5.30;;;4.75;;
11222;SDS011;5668;52.012;8.724;2023-05-10T13:13:08;6.00;;;4.93;;
11222;SDS011;5668;52.012;8.724;2023-05-10T13:15:35;6.00;;;4.88;;
11222;SDS011;5668;52.012;8.724;2023-05-10T13:18:04;7.28;;;5.30;;
11222;SDS011;5668;52.012;8.724;2023-05-10T13:20:31;7.20;;;5.85;;
11222;SDS011;5668;52.012;8.724;2023-05-10T13:22:58;6.60;;;6.00;;
11222;SDS011;5668;52.012;8.724;2023-05-10T13:25:26;6.38;;;5.55;;
11222;SDS011;5668;52.012;8.724;2023-05-10T13:27:53;7.18;;;5.75;;
11222;SDS011;5668;52.012;8.724;2023-05-10T13:30:20;7.60;;;6.57;;
11222;SDS011;5668;52.012;8.724;2023-05-10T13:32:48;7.63;;;6.70;;
11222;SDS011;5668;52.012;8.724;2023-05-10T13:35:17;7.15;;;6.45;;
11222;SDS011;5668;52.012;8.724;2023-05-10T13:37:44;8.10;;;6.80;;
11222;SDS011;5668;52.012;8.724;2023-05-10T13:40:11;7.43;;;6.70;;
11222;SDS011;5668;52.012;8.724;2023-05-10T13:42:40;8.40;;;6.07;;
11222;SDS011;5668;52.012;8.724;2023-05-10T13:45:08;7.25;;;6.18;;
11222;SDS011;5668;52.012;8.724;2023-05-10T13:47:36;6.47;;;5.80;;
11222;SDS011;5668;52.012;8.724;2023-05-10T13:50:04;7.03;;;6.32;;
11222;SDS011;5668;52.012;8.724;2023-05-10T13:52:35;7.18;;;6.00;;
11222;SDS011;5668;52.012;8.724;2023-05-10T13:55:02;8.73;;;6.40;;
11222;SDS011;5668;52.012;8.724;2023-05-10T13:57:30;8.10;;;6.32;;
11222;SDS011;5668;52.012;8.724;2023-05-10T13:59:59;8.88;;;6.80;;
11222;SDS011;5668;52.012;8.724;2023-05-10T14:02:26;9.77;;;8.05;;
11222;SDS011;5668;52.012;8.724;2023-05-10T14:04:54;10.65;;;7.60;;
11222;SDS011;5668;52.012;8.724;2023-05-10T14:07:21;9.60;;;7.63;;
11222;SDS011;5668;52.012;8.724;2023-05-10T14:09:49;7.22;;;6.28;;
11222;SDS011;5668;52.012;8.724;2023-05-10T14:12:17;6.88;;;6.10;;
11222;SDS011;5668;52.012;8.724;2023-05-10T14:14:44;6.22;;;5.22;;
11222;SDS011;5668;52.012;8.724;2023-05-10T14:17:11;5.70;;;4.72;;
11222;SDS011;5668;52.012;8.724;2023-05-10T14:19:38;7.13;;;5.43;;
11222;SDS011;5668;52.012;8.724;2023-05-10T14:22:05;7.00;;;5.97;;
11222;SDS011;5668;52.012;8.724;2023-05-10T14:24:33;6.65;;;5.60;;
11222;SDS011;5668;52.012;8.724;2023-05-10T14:27:01;6.90;;;5.32;;
11222;SDS011;5668;52.012;8.724;2023-05-10T14:29:28;5.43;;;4.88;;
11222;SDS011;5668;52.012;8.724;2023-05-10T14:31:56;5.05;;;4.25;;
11222;SDS011;5668;52.012;8.724;2023-05-10T14:34:23;5.35;;;4.25;;
11222;SDS011;5668;52.012;8.724;2023-05-10T14:36:50;5.65;;;3.97;;
11222;SDS011;5668;52.012;8.724;2023-05-10T14:39:17;5.07;;;3.40;;
11222;SDS011;5668;52.012;8.724;2023-05-10T14:41:44;5.18;;;3.88;;
11222;SDS011;5668;52.012;8.724;2023-05-10T14:44:13;6.07;;;3.67;;
11222;SDS011;5668;52.012;8.724;2023-05-10T14:46:41;6.65;;;3.92;;
11222;SDS011;5668;52.012;8.724;2023-05-10T14:49:08;6.60;;;4.07;;
11222;SDS011;5668;52.012;8.724;2023-05-10T14:51:35;5.60;;;4.40;;
11222;SDS011;5668;52.012;8.724;2023-05-10T14:54:02;6.30;;;4.80;;
11222;SDS011;5668;52.012;8.724;2023-05-10T14:56:31;6.78;;;4.57;;
11222;SDS011;5668;52.012;8.724;2023-05-10T14:58:58;5.22;;;4.72;;
11222;SDS011;5668;52.012;8.724;2023-05-10T15:01:27;6.38;;;4.97;;
11222;SDS011;5668;52.012;8.724;2023-05-10T15:03:54;5.63;;;5.07;;
11222;SDS011;5668;52.012;8.724;2023-05-10T15:06:22;5.63;;;4.90;;
11222;SDS011;5668;52.012;8.724;2023-05-10T15:08:56;5.95;;;5.20;;
11222;SDS011;5668;52.012;8.724;2023-05-10T15:11:23;7.05;;;5.30;;
11222;SDS011;5668;52.012;8.724;2023-05-10T15:13:50;5.40;;;4.90;;